Terminal Aerodrome Forecast
Issued by NWS Kansas City/Pleasant Hill, MO

Home | Current Version | Previous Version | Text Only | Print | Product List | Glossary On
Versions: 1 2 3 4 5 6 7 8 9 10 11 12 13 14 15 16 17
577
FTUS43 KEAX 281125
TAFMCI
TAF
KMCI 281125Z 2812/2912 19018G28KT P6SM BKN200
     FM290100 19014KT P6SM SCT200
     FM290900 19011KT P6SM BKN150=

USA.gov is the U.S. government's official web portal to all federal, state and local government web resources and services.